Карачиха

Карта отелей и гостиниц, располагающихся рядом с аэропортом Карачиха :

Карачиха Ярославская область 57° 39' 5.22" N, 39° 45' 37.6812" E
Код аэродрома ИКАО
XUDA
Код аэродрома RU
ЬУДА
Координаты
N57.65145° E039.76047°
Превышение над уровнем моря
100
Основная полоса
36/18
Курс магнитный
355,2/175,2
Длина основной ВПП
700
Ширина основной ВПП
50
Покрытие основной ВПП
Нетвёрдое (грунт)
Освещение ВПП
Нет
Тип: 
Аэродром
Класс аэродрома: 
Принадлежность: 
ДОСААФ
Статус: 
Действующий
Сайт: 
www.yarnebo.ru
E-mail аэродрома: 
nikolay58rus@yandex.ru
Страна: 
Россия
Регион: 
Ярославская область
Город: 
Дополнительная информация: 
Оператор: Ярославский областной АСК ДОСААФ России. Ранее старт разбивался также с МК=060°/240°. Нкр.=(300)м, ОПРС: 970-КР, принимает ВС до 12 тонн.

Найти трансфер

С помощью этой формы Вы можете найти трансфер из аэропорта Карачиха в город, аэропорт или вокзал:

Карта места

Javascript is required to view this map.

Погода в аэропортах:

Авиационная погода в Бресте

Регион: 
Погода METAR: 
UMBB 281100Z 07003MPS 5000 BR OVC040 02/01 Q0999 NOSIG
Время наблюдения
2021-11-28T11:00:00Z
Температура C
2.0
Точка росы
1.0
Направление ветра
70
Скорость ветра (узлы)
6
Метео видимость
3.11
Явления погоды
BR
Условия полета
MVFR
Аэропорт подробнее: 

Авиационная погода в Пулково

Регион: 
Погода METAR: 
ULLI 281300Z 04005MPS 3900 -SHSN SCT009 BKN018CB OVC036 M03/M04 Q1002 RESHSN R88/490535 NOSIG
Время наблюдения
2021-11-28T13:00:00Z
Температура C
-3.0
Точка росы
-4.0
Направление ветра
40
Скорость ветра (узлы)
10
Метео видимость
2.42
Явления погоды
-SHSN
Условия полета
IFR
Аэропорт подробнее: 

Авиационная погода в Москва - Внуково

Погода METAR: 
UUWW 281300Z 22006MPS 9999 -RA BKN007 OVC022 02/01 Q1005 R24/290050 TEMPO BKN004
Время наблюдения
2021-11-28T13:00:00Z
Температура C
2.0
Точка росы
1.0
Направление ветра
220
Скорость ветра (узлы)
12
Метео видимость
6.21
Явления погоды
-RA
Условия полета
IFR
Аэропорт подробнее: 

Авиационная погода в Курске

Погода METAR: 
UUOK 281300Z 18002MPS 160V240 5000 BR OVC011 07/06 Q1008 R30/290050 TEMPO 1500 BR RMK QFE737/0983
Время наблюдения
2021-11-28T13:00:00Z
Температура C
7.0
Точка росы
6.0
Направление ветра
180
Скорость ветра (узлы)
4
Метео видимость
3.11
Явления погоды
BR
Условия полета
MVFR
Аэропорт подробнее: